Time;durP1;ratioP1;P1;durP2;ratioP2;P2;SDS_P1;SDS_P2;PMS_P1;PMS_P2;Temp;Humidity;BMP_temperature;BMP_pressure;BME280_temperature;BME280_humidity;BME280_pressure;Samples;Min_cycle;Max_cycle;Signal;HPM_P1;HPM_P2
2023/10/10 00:01:04;;;;;;;;;19.00;18.00;;;;;19.23;67.51;100966.41;5085259;27;45421;-74
2023/10/10 00:03:32;;;;;;;;;21.00;20.50;;;;;19.32;68.29;100992.06;5085391;27;45501;-78
2023/10/10 00:06:06;;;;;;;;;20.00;19.00;;;;;19.29;67.62;100989.38;5090069;27;45506;-77
2023/10/10 00:08:40;;;;;;;;;16.75;16.25;;;;;19.21;67.40;100973.50;5090032;27;45481;-78
2023/10/10 00:11:09;;;;;;;;;23.75;20.75;;;;;19.34;68.93;100990.28;5087388;27;45704;-78
2023/10/10 00:13:46;;;;;;;;;19.75;18.25;;;;;19.37;68.90;100992.94;5088337;27;45466;-74
2023/10/10 00:19:17;;;;;;;;;18.50;18.00;;;;;19.41;68.08;100977.94;5085846;27;45415;-74
2023/10/10 00:21:42;;;;;;;;;16.50;16.50;;;;;19.45;68.13;100985.88;5086574;27;45241;-74
2023/10/10 00:24:11;;;;;;;;;20.00;18.75;;;;;19.40;68.27;100987.66;5088853;27;45409;-74
2023/10/10 00:26:38;;;;;;;;;22.75;20.50;;;;;19.19;67.97;100951.41;5089801;27;46224;-74
2023/10/10 00:29:08;;;;;;;;;11.00;10.25;;;;;19.41;67.76;100985.88;5088348;27;45687;-74
2023/10/10 00:31:34;;;;;;;;;22.25;20.00;;;;;19.38;67.54;100980.59;5088056;27;45501;-74
2023/10/10 00:34:00;;;;;;;;;20.75;19.50;;;;;19.22;67.69;100961.16;5091041;27;45347;-74
2023/10/10 00:36:33;;;;;;;;;18.00;16.00;;;;;19.26;67.28;100990.28;5090025;27;46113;-77
2023/10/10 00:41:56;;;;;;;;;18.75;18.50;;;;;19.27;67.47;100991.16;5065684;27;45549;-77
2023/10/10 00:44:22;;;;;;;;;17.50;16.25;;;;;18.90;67.80;100924.00;5090861;27;45498;-75
2023/10/10 00:46:52;;;;;;;;;18.25;18.00;;;;;18.57;67.57;100873.63;5095423;27;46304;-75
2023/10/10 00:49:23;;;;;;;;;21.50;17.50;;;;;19.19;67.61;100983.19;5095092;27;46220;-74
2023/10/10 00:52:01;;;;;;;;;20.75;20.00;;;;;19.18;67.61;100986.75;5088061;27;45696;-77
2023/10/10 00:54:31;;;;;;;;;18.00;16.25;;;;;19.22;67.27;100995.59;5098696;27;45342;-74
2023/10/10 00:56:59;;;;;;;;;16.50;16.00;;;;;19.26;67.48;100998.22;5091587;27;45492;-77
2023/10/10 00:59:35;;;;;;;;;21.75;19.25;;;;;19.27;67.47;100991.16;5095828;27;45357;-78
2023/10/10 01:02:04;;;;;;;;;19.75;19.25;;;;;19.29;67.71;100992.03;5086454;27;45312;-77
2023/10/10 01:04:48;;;;;;;;;16.00;15.00;;;;;19.27;67.32;100988.50;5084379;27;45504;-75
2023/10/10 01:07:19;;;;;;;;;21.50;19.25;;;;;19.31;67.46;100986.75;5086786;27;45320;-77
2023/10/10 01:10:07;;;;;;;;;20.25;19.25;;;;;19.23;67.60;100987.63;5088495;27;45395;-75
2023/10/10 01:12:35;;;;;;;;;19.75;17.75;;;;;19.16;68.38;100980.56;5091816;27;45563;-74
2023/10/10 01:15:48;;;;;;;;;18.50;18.00;;;;;19.11;68.42;100979.66;5097944;27;45449;-76
2023/10/10 01:17:57;;;;;;;;;21.75;21.00;;;;;18.94;68.85;100960.19;5084936;27;45626;-76
2023/10/10 01:23:26;;;;;;;;;20.75;19.50;;;;;18.80;68.91;100933.69;5087482;27;45433;-74
2023/10/10 01:25:52;;;;;;;;;21.75;21.75;;;;;19.00;69.33;100973.44;5088056;27;45586;-74
2023/10/10 01:33:22;;;;;;;;;20.75;20.25;;;;;19.01;68.12;100975.22;5086795;27;45486;-74
2023/10/10 01:35:55;;;;;;;;;19.00;18.00;;;;;19.00;68.16;100961.13;5087722;27;45385;-74
2023/10/10 01:38:44;;;;;;;;;20.50;19.25;;;;;18.93;68.19;100961.97;5087832;27;45503;-74
2023/10/10 01:41:22;;;;;;;;;19.00;19.00;;;;;18.66;67.92;100937.19;5086747;27;45666;-74
2023/10/10 01:43:54;;;;;;;;;21.75;19.00;;;;;18.44;68.73;100909.78;5097880;27;45416;-74
2023/10/10 01:46:29;;;;;;;;;24.25;22.25;;;;;18.75;69.16;100944.25;5091958;27;45248;-74
2023/10/10 01:48:56;;;;;;;;;21.00;18.50;;;;;18.71;69.13;100937.19;5082412;27;45225;-77
2023/10/10 01:51:25;;;;;;;;;21.25;20.00;;;;;18.72;69.48;100954.84;5093773;27;45483;-75
2023/10/10 01:53:55;;;;;;;;;22.25;20.00;;;;;18.61;69.86;100959.19;5097073;27;45268;-77
2023/10/10 01:56:22;;;;;;;;;20.25;20.25;;;;;18.58;70.08;100959.19;5097626;27;45442;-75
2023/10/10 01:58:53;;;;;;;;;24.25;21.00;;;;;18.58;69.87;100953.88;5097403;27;45421;-74
2023/10/10 02:01:19;;;;;;;;;22.50;20.25;;;;;18.62;69.64;100953.00;5096563;27;45462;-76
2023/10/10 02:03:47;;;;;;;;;19.25;17.50;;;;;17.98;68.94;100829.38;5097957;27;45338;-75
2023/10/10 02:06:15;;;;;;;;;21.75;19.50;;;;;18.67;68.24;100946.00;5097714;27;45898;-78
2023/10/10 02:08:44;;;;;;;;;22.50;21.50;;;;;18.44;68.17;100912.41;5096971;27;45484;-77
2023/10/10 02:11:12;;;;;;;;;20.75;18.50;;;;;18.41;68.01;100909.75;5085840;27;45621;-74
2023/10/10 02:13:39;;;;;;;;;21.00;19.00;;;;;18.62;68.36;100945.97;5093889;27;45367;-76
2023/10/10 02:16:06;;;;;;;;;21.00;20.00;;;;;18.62;68.77;100945.97;5075137;27;45374;-75
2023/10/10 02:18:44;;;;;;;;;20.50;19.00;;;;;18.63;68.37;100941.56;5087631;27;45954;-74
2023/10/10 02:21:16;;;;;;;;;21.00;19.75;;;;;18.58;68.68;100935.38;5087801;27;45401;-74
2023/10/10 02:23:46;;;;;;;;;20.75;19.75;;;;;18.59;68.85;100939.78;5089126;27;45404;-76
2023/10/10 02:26:35;;;;;;;;;22.75;21.25;;;;;18.51;68.44;100933.59;5096973;27;45549;-75
2023/10/10 02:29:17;;;;;;;;;21.25;20.50;;;;;18.51;69.04;100936.25;5072111;27;46054;-74
2023/10/10 02:31:48;;;;;;;;;21.50;20.00;;;;;18.19;69.49;100884.97;5084877;27;46182;-74
2023/10/10 02:34:14;;;;;;;;;23.75;22.00;;;;;18.48;69.57;100934.44;5096186;27;45314;-77
2023/10/10 02:36:41;;;;;;;;;21.00;19.75;;;;;18.49;69.55;100936.22;5087987;27;45315;-74
2023/10/10 02:41:50;;;;;;;;;21.50;21.00;;;;;18.52;69.52;100930.94;5085756;27;45540;-78
2023/10/10 02:46:59;;;;;;;;;21.00;20.50;;;;;18.20;69.84;100880.56;5089449;27;45360;-75
2023/10/10 02:51:55;;;;;;;;;23.00;19.75;;;;;18.41;70.33;100919.44;5083956;27;45395;-76
2023/10/10 02:54:44;;;;;;;;;23.00;23.00;;;;;18.51;70.00;100931.81;5095272;27;45515;-74
2023/10/10 02:59:59;;;;;;;;;20.75;20.50;;;;;18.48;69.98;100927.41;5093033;27;45478;-74
2023/10/10 03:02:30;;;;;;;;;21.25;21.25;;;;;18.43;70.57;100923.84;5090163;27;45473;-74
2023/10/10 03:07:29;;;;;;;;;21.75;21.75;;;;;18.38;70.38;100922.06;5081794;27;45485;-74
2023/10/10 03:12:49;;;;;;;;;21.75;19.50;;;;;18.22;69.97;100919.38;5086950;27;45641;-74
2023/10/10 03:20:24;;;;;;;;;23.25;23.00;;;;;18.05;71.21;100921.06;5086117;27;45471;-77
2023/10/10 03:23:09;;;;;;;;;24.00;22.50;;;;;18.00;70.97;100907.78;5084162;27;45567;-75
2023/10/10 03:25:52;;;;;;;;;24.25;23.50;;;;;18.06;70.99;100917.50;5085504;27;45651;-74
2023/10/10 03:28:22;;;;;;;;;21.50;19.75;;;;;18.08;71.10;100921.97;5088768;27;45516;-76
2023/10/10 03:31:06;;;;;;;;;20.50;20.00;;;;;17.97;70.94;100891.94;5083928;27;45460;-75
2023/10/10 05:25:24;;;;;;;;;24.50;21.25;;;;;17.04;70.79;100753.09;5098537;27;45270;-74
2023/10/10 05:27:58;;;;;;;;;26.75;25.00;;;;;17.83;71.09;100889.22;5098086;27;45631;-74
2023/10/10 05:30:39;;;;;;;;;20.25;19.00;;;;;17.73;71.13;100890.00;5097603;27;46729;-75
2023/10/10 05:33:06;;;;;;;;;21.75;19.25;;;;;17.59;70.78;100884.63;5098121;27;45304;-74
2023/10/10 05:35:37;;;;;;;;;22.25;21.75;;;;;17.66;70.74;100888.19;5097773;27;45313;-75
2023/10/10 05:38:10;;;;;;;;;23.75;22.50;;;;;17.63;70.94;100880.25;5098348;27;45359;-75
2023/10/10 05:40:38;;;;;;;;;22.00;21.25;;;;;17.57;71.62;100889.03;5098001;27;45306;-74
2023/10/10 05:43:15;;;;;;;;;22.75;20.00;;;;;17.59;71.83;100878.47;5097953;27;45553;-76
2023/10/10 05:45:42;;;;;;;;;23.00;21.25;;;;;17.61;71.85;100888.16;5098193;27;45424;-74
2023/10/10 05:48:08;;;;;;;;;23.75;23.25;;;;;16.85;71.53;100749.47;5097743;27;45521;-74
2023/10/10 05:50:34;;;;;;;;;22.75;20.00;;;;;17.46;71.37;100848.44;5098032;27;45966;-74
2023/10/10 05:53:07;;;;;;;;;27.75;26.50;;;;;17.48;71.32;100862.53;5097572;27;45377;-75
2023/10/10 05:55:34;;;;;;;;;24.75;23.00;;;;;17.44;71.49;100851.06;5068015;27;45550;-77
2023/10/10 05:58:02;;;;;;;;;28.00;25.75;;;;;17.62;71.02;100876.72;5098087;27;45413;-74
2023/10/10 06:00:36;;;;;;;;;21.50;21.00;;;;;17.50;70.97;100858.13;5097922;27;45408;-74
2023/10/10 06:03:08;;;;;;;;;32.50;29.50;;;;;17.66;70.56;100877.63;5096404;27;45576;-74
2023/10/10 06:05:34;;;;;;;;;25.25;23.50;;;;;17.67;70.51;100879.41;5097685;27;45267;-75
2023/10/10 06:08:01;;;;;;;;;26.00;24.50;;;;;17.57;70.50;100854.69;5097889;27;45229;-74
2023/10/10 06:10:31;;;;;;;;;20.00;19.00;;;;;17.69;70.77;100875.88;5097001;27;45330;-75
2023/10/10 06:13:03;;;;;;;;;22.50;21.25;;;;;17.73;71.31;100876.78;5097495;27;45405;-74
2023/10/10 06:15:30;;;;;;;;;21.75;21.75;;;;;17.74;71.38;100872.38;5097434;27;45339;-74
2023/10/10 06:17:57;;;;;;;;;26.75;24.00;;;;;17.47;71.50;100823.81;5098101;27;45402;-75
2023/10/10 06:20:24;;;;;;;;;21.50;20.75;;;;;17.66;71.73;100851.19;5097180;27;46168;-74
2023/10/10 06:22:50;;;;;;;;;23.50;22.75;;;;;17.83;71.29;100873.34;5096178;27;45366;-74
2023/10/10 06:25:18;;;;;;;;;24.50;23.50;;;;;17.86;70.76;100873.34;5097057;27;45506;-74
2023/10/10 06:27:54;;;;;;;;;76.25;57.50;;;;;17.83;70.89;100867.16;5097762;27;45499;-75
2023/10/10 06:30:24;;;;;;;;;51.50;41.25;;;;;17.85;70.68;100876.00;5096438;27;46249;-74
2023/10/10 06:32:50;;;;;;;;;66.00;51.00;;;;;17.14;70.78;100739.97;5097125;27;45472;-74
2023/10/10 06:37:51;;;;;;;;;49.00;39.00;;;;;17.95;70.87;100872.53;5092479;27;45765;-73
2023/10/10 06:40:24;;;;;;;;;35.75;31.00;;;;;17.91;70.92;100875.16;5096508;27;46334;-73
2023/10/10 06:42:54;;;;;;;;;34.25;28.25;;;;;17.95;70.70;100875.19;5097169;27;45363;-77
2023/10/10 06:45:22;;;;;;;;;28.75;27.50;;;;;17.98;70.66;100869.88;5094302;27;45497;-75
2023/10/10 06:47:51;;;;;;;;;34.00;29.00;;;;;18.05;70.58;100876.97;5079017;27;45464;-79
2023/10/10 06:50:21;;;;;;;;;34.50;29.50;;;;;17.82;70.58;100828.38;5078216;27;46094;-79
2023/10/10 06:52:53;;;;;;;;;35.00;30.00;;;;;18.01;70.97;100875.22;5076469;27;45322;-76
2023/10/10 06:55:22;;;;;;;;;27.75;25.75;;;;;17.89;70.65;100861.94;5076433;27;45558;-75
2023/10/10 06:58:01;;;;;;;;;28.25;26.75;;;;;18.06;70.70;100877.84;5074070;27;45444;-74
2023/10/10 07:00:28;;;;;;;;;33.50;29.75;;;;;17.75;70.35;100810.75;5076068;27;46187;-73
2023/10/10 07:02:55;;;;;;;;;27.75;27.00;;;;;17.72;70.23;100811.59;5076582;27;45655;-73
2023/10/10 07:05:26;;;;;;;;;33.75;28.00;;;;;18.19;70.35;100884.97;5076934;27;45642;-77
2023/10/10 07:07:57;;;;;;;;;46.75;36.25;;;;;18.18;70.31;100877.91;5078107;27;45642;-77
2023/10/10 07:10:27;;;;;;;;;68.25;51.50;;;;;18.25;69.75;100878.84;5076546;27;45496;-73
2023/10/10 07:12:58;;;;;;;;;54.50;43.25;;;;;18.32;69.78;100882.38;5074750;28;45477;-73
2023/10/10 07:15:34;;;;;;;;;48.75;39.75;;;;;18.54;69.40;100878.03;5080361;27;45279;-72
2023/10/10 07:18:14;;;;;;;;;31.00;29.00;;;;;18.68;69.22;100871.00;5080098;27;45266;-72
2023/10/10 07:23:24;;;;;;;;;28.00;25.00;;;;;18.90;69.92;100871.97;5080110;28;45259;-75
2023/10/10 07:25:59;;;;;;;;;27.75;25.25;;;;;18.74;69.88;100838.38;5080624;28;45319;-75
2023/10/10 07:28:26;;;;;;;;;24.25;22.50;;;;;18.44;70.54;100780.16;5081261;28;45380;-75
2023/10/10 07:30:53;;;;;;;;;25.00;24.00;;;;;19.00;70.14;100857.84;5080586;28;45723;-77
2023/10/10 07:33:23;;;;;;;;;29.00;27.75;;;;;19.14;70.78;100878.13;5080505;27;45257;-78
2023/10/10 07:35:53;;;;;;;;;25.25;23.75;;;;;19.19;71.03;100879.03;5097149;27;45454;-73
2023/10/10 07:38:30;;;;;;;;;25.25;25.25;;;;;19.83;69.39;100867.47;5100154;27;45420;-74
2023/10/10 07:40:55;;;;;;;;;24.50;24.00;;;;;22.02;64.63;100872.09;5097387;27;46886;-74
2023/10/10 07:43:27;;;;;;;;;25.25;21.50;;;;;23.76;59.24;100861.47;5099169;27;45584;-74
2023/10/10 07:45:54;;;;;;;;;20.25;19.25;;;;;25.28;54.94;100854.53;5099011;27;45428;-73
2023/10/10 07:50:55;;;;;;;;;19.00;18.33;;;;;27.55;49.30;100852.97;5068897;27;45318;-73
2023/10/10 07:53:31;;;;;;;;;21.00;19.00;;;;;28.20;46.98;100791.53;5099753;27;45645;-73
2023/10/10 07:56:02;;;;;;;;;19.00;18.33;;;;;29.30;45.08;100860.53;5099951;27;45408;-73
2023/10/10 07:58:42;;;;;;;;;19.67;19.67;;;;;29.94;43.86;100863.13;5099222;27;45890;-74
2023/10/10 08:01:16;;;;;;;;;16.33;16.33;;;;;30.45;43.41;100859.88;5099473;27;46400;-73
2023/10/10 08:03:46;;;;;;;;;18.67;18.00;;;;;31.27;42.54;100856.72;5099339;27;45425;-73
2023/10/10 08:06:21;;;;;;;;;19.00;18.00;;;;;31.78;41.55;100854.97;5098712;27;45295;-73
2023/10/10 08:08:49;;;;;;;;;16.67;16.67;;;;;32.28;41.35;100851.34;5099638;27;45483;-74
2023/10/10 08:11:25;;;;;;;;;16.00;16.00;;;;;32.90;39.60;100851.41;5098909;27;45454;-74
2023/10/10 08:13:51;;;;;;;;;19.00;18.00;;;;;33.33;38.17;100858.88;5098955;27;45315;-74
2023/10/10 08:16:29;;;;;;;;;21.33;20.00;;;;;33.41;37.82;100829.47;5098938;27;45275;-75
2023/10/10 08:18:55;;;;;;;;;15.67;15.00;;;;;34.04;37.23;100862.63;5099445;27;45393;-74
2023/10/10 08:21:24;;;;;;;;;16.00;15.67;;;;;34.37;36.26;100853.34;5098484;27;45911;-74
2023/10/10 08:23:59;;;;;;;;;14.67;14.67;;;;;34.70;35.93;100862.97;5097874;27;45420;-75
2023/10/10 08:26:26;;;;;;;;;19.33;17.00;;;;;34.96;36.76;100864.81;5069792;27;45565;-74
2023/10/10 08:28:53;;;;;;;;;18.33;18.00;;;;;34.97;35.54;100850.25;5099440;27;45614;-73
2023/10/10 08:31:19;;;;;;;;;15.67;15.67;;;;;35.22;35.77;100863.06;5099207;27;45568;-77
2023/10/10 08:33:46;;;;;;;;;17.33;17.00;;;;;35.54;34.53;100869.97;5098168;27;45357;-78
2023/10/10 08:36:23;;;;;;;;;17.33;16.33;;;;;35.78;35.27;100872.84;5098645;27;45485;-75
2023/10/10 08:38:56;;;;;;;;;14.33;14.33;;;;;36.21;34.62;100867.94;5099048;27;45230;-75
2023/10/10 08:41:26;;;;;;;;;16.33;15.33;;;;;36.40;34.05;100869.28;5098550;27;45650;-74
2023/10/10 08:43:53;;;;;;;;;16.00;15.67;;;;;36.42;33.60;100831.94;5098361;27;45394;-76
2023/10/10 08:46:26;;;;;;;;;17.67;16.00;;;;;36.51;33.57;100852.16;5099316;27;45404;-75
2023/10/10 08:48:54;;;;;;;;;16.00;16.00;;;;;36.46;33.53;100860.66;5099783;27;45527;-75
2023/10/10 08:51:20;;;;;;;;;16.67;16.33;;;;;35.85;34.29;100865.97;5099088;27;45438;-75
2023/10/10 08:53:50;;;;;;;;;16.33;14.67;;;;;36.14;34.54;100861.16;5099227;27;45492;-75
2023/10/10 08:56:17;;;;;;;;;14.33;14.33;;;;;36.43;34.09;100828.22;5099498;27;45203;-75
2023/10/10 08:58:42;;;;;;;;;19.33;17.67;;;;;36.79;34.44;100867.34;5099171;27;45539;-76
2023/10/10 09:01:08;;;;;;;;;16.67;16.67;;;;;37.01;34.00;100840.19;5099250;27;45345;-75
2023/10/10 09:03:35;;;;;;;;;16.00;16.00;;;;;37.24;33.21;100859.38;5099806;27;45850;-75
2023/10/10 09:06:19;;;;;;;;;17.00;16.33;;;;;37.10;33.57;100854.94;5098754;27;45522;-80
2023/10/10 09:08:49;;;;;;;;;16.00;16.00;;;;;37.29;33.08;100867.19;5097995;27;45456;-75
2023/10/10 09:11:16;;;;;;;;;17.67;17.33;;;;;36.97;33.40;100865.94;5097566;27;46078;-79
2023/10/10 09:13:51;;;;;;;;;17.00;16.33;;;;;36.98;33.70;100870.38;5098228;27;45529;-75
2023/10/10 09:16:19;;;;;;;;;18.67;16.33;;;;;36.99;33.59;100874.00;5098173;27;45578;-82
2023/10/10 09:19:04;;;;;;;;;27.33;21.33;;;;;36.93;33.71;100847.19;5097954;27;45495;-81
2023/10/10 09:21:30;;;;;;;;;19.00;17.50;;;;;36.90;33.69;100866.50;5097967;27;45500;-79
2023/10/10 09:24:26;;;;;;;;;17.00;16.67;;;;;36.53;34.04;100878.28;5097344;27;45560;-75
2023/10/10 09:26:56;;;;;;;;;14.67;13.67;;;;;36.41;34.97;100857.41;5096819;27;45429;-76
2023/10/10 09:29:32;;;;;;;;;16.67;16.33;;;;;36.51;34.90;100874.81;5097517;27;45374;-79
2023/10/10 09:31:59;;;;;;;;;16.00;16.00;;;;;36.11;35.29;100877.72;5097744;27;45309;-82
2023/10/10 09:34:29;;;;;;;;;18.33;17.33;;;;;35.96;35.98;100871.50;5098027;27;45501;-75
2023/10/10 09:36:57;;;;;;;;;14.00;13.67;;;;;36.22;35.47;100877.81;5095636;27;45558;-75
2023/10/10 09:39:37;;;;;;;;;14.33;14.00;;;;;36.52;34.57;100864.78;5097728;27;45358;-77
2023/10/10 09:42:08;;;;;;;;;14.00;14.00;;;;;36.87;34.21;100875.78;5098528;27;45458;-82
2023/10/10 09:52:58;;;;;;;;;15.67;15.67;;;;;36.42;35.02;100859.16;5097952;27;45482;-78
2023/10/10 10:04:12;;;;;;;;;15.33;14.67;;;;;37.27;33.90;100850.09;5097219;27;45816;-83
2023/10/10 10:06:34;;;;;;;;;14.67;14.33;;;;;37.24;32.60;100866.69;5075094;27;45554;-75
2023/10/10 10:09:17;;;;;;;;;12.33;12.33;;;;;36.50;33.85;100867.63;5097926;27;45272;-75
2023/10/10 10:12:10;;;;;;;;;19.33;19.00;;;;;36.41;34.33;100862.84;5067860;27;45326;-75
2023/10/10 10:14:54;;;;;;;;;14.33;12.67;;;;;36.36;34.34;100865.06;5097243;27;46354;-82
2023/10/10 10:17:54;;;;;;;;;14.33;13.00;;;;;36.39;34.39;100848.50;5095278;27;45390;-78
2023/10/10 10:20:33;;;;;;;;;19.67;19.00;;;;;36.46;34.91;100857.09;5077035;27;45468;-79
2023/10/10 10:23:00;;;;;;;;;16.33;14.67;;;;;36.46;34.38;100860.66;5078837;27;45472;-81
2023/10/10 10:25:32;;;;;;;;;15.67;14.00;;;;;36.57;34.10;100848.97;5078180;27;45381;-82
2023/10/10 10:28:10;;;;;;;;;15.00;14.33;;;;;36.32;34.29;100858.09;5076489;27;45463;-81
2023/10/10 10:30:50;;;;;;;;;14.33;14.33;;;;;36.40;35.08;100859.25;5078489;27;45337;-82
2023/10/10 10:33:23;;;;;;;;;19.00;19.00;;;;;36.11;35.41;100865.94;5096365;27;45580;-83
2023/10/10 10:36:03;;;;;;;;;14.00;14.00;;;;;35.71;35.54;100856.06;5096766;27;46059;-83
2023/10/10 10:38:31;;;;;;;;;14.33;13.33;;;;;35.24;35.79;100847.53;5092306;27;45534;-79
2023/10/10 10:41:07;;;;;;;;;15.00;14.00;;;;;34.85;35.65;100842.94;5077936;27;45528;-81
2023/10/10 10:43:41;;;;;;;;;15.00;13.67;;;;;34.69;36.29;100858.53;5078992;27;45445;-81
2023/10/10 10:46:12;;;;;;;;;15.33;15.33;;;;;34.75;36.72;100858.13;5097244;27;45953;-80
2023/10/10 10:48:40;;;;;;;;;19.00;19.00;;;;;34.65;36.51;100856.00;5090940;27;45563;-80
2023/10/10 10:51:22;;;;;;;;;13.67;13.67;;;;;34.45;37.84;100851.00;5079562;27;45417;-79
2023/10/10 10:53:58;;;;;;;;;13.33;13.00;;;;;34.51;38.06;100856.00;5074993;27;45550;-82
2023/10/10 10:59:12;;;;;;;;;45.75;38.00;;;;;34.49;38.09;100848.97;5102955;27;45341;-82
2023/10/10 11:01:51;;;;;;;;;15.67;15.00;;;;;34.31;38.49;100842.91;5104097;27;45427;-83
2023/10/10 11:06:59;;;;;;;;;15.33;14.33;;;;;34.16;38.34;100851.06;5103478;27;45278;-82
2023/10/10 11:09:28;;;;;;;;;15.00;15.00;;;;;34.11;38.71;100852.28;5075142;27;45456;-82
2023/10/10 11:12:01;;;;;;;;;15.00;14.00;;;;;34.10;37.17;100853.25;5099265;27;45364;-83
2023/10/10 11:14:30;;;;;;;;;13.67;13.33;;;;;33.94;37.35;100854.22;5102855;27;45309;-82
2023/10/10 11:16:58;;;;;;;;;22.33;18.33;;;;;33.82;37.72;100853.16;5104602;27;45467;-82
2023/10/10 11:22:05;;;;;;;;;22.00;21.00;;;;;33.53;38.08;100840.53;5096139;27;45627;-82
2023/10/10 11:24:34;;;;;;;;;15.33;14.33;;;;;33.47;38.99;100836.34;5067838;27;45488;-81
2023/10/10 11:29:34;;;;;;;;;18.00;17.67;;;;;33.15;39.45;100824.75;5095700;27;45463;-73
2023/10/10 11:32:08;;;;;;;;;16.00;15.00;;;;;33.09;40.30;100829.59;5095849;27;45653;-73
2023/10/10 11:34:46;;;;;;;;;15.67;14.33;;;;;32.96;40.08;100833.09;5096070;27;45392;-74
2023/10/10 11:37:13;;;;;;;;;15.00;15.00;;;;;32.79;40.67;100824.16;5095798;27;46162;-73
2023/10/10 11:39:47;;;;;;;;;16.67;15.67;;;;;32.72;40.71;100813.78;5095815;27;45464;-82
2023/10/10 11:42:33;;;;;;;;;16.33;15.67;;;;;32.85;40.98;100825.63;5095906;27;45542;-74
2023/10/10 11:45:06;;;;;;;;;14.00;12.00;;;;;32.70;40.84;100801.19;5096295;27;45395;-74
2023/10/10 11:47:42;;;;;;;;;16.00;15.00;;;;;32.72;40.24;100817.34;5095154;27;47397;-73
2023/10/10 11:50:09;;;;;;;;;17.00;15.67;;;;;32.52;39.74;100791.41;5095673;27;45501;-73
2023/10/10 11:52:34;;;;;;;;;16.00;16.00;;;;;32.47;39.84;100797.09;5095740;27;45532;-74
2023/10/10 11:55:00;;;;;;;;;16.00;15.33;;;;;32.44;40.75;100807.22;5096263;27;45331;-76
2023/10/10 11:57:28;;;;;;;;;14.67;14.67;;;;;32.39;40.34;100763.34;5094744;27;45560;-73
2023/10/10 11:59:58;;;;;;;;;17.67;16.67;;;;;32.50;40.59;100782.53;5095313;27;45547;-74
2023/10/10 12:02:29;;;;;;;;;15.33;14.00;;;;;32.58;40.92;100793.78;5099025;27;45530;-74
2023/10/10 12:04:55;;;;;;;;;16.33;16.33;;;;;32.40;40.14;100754.28;5099167;27;45473;-74
2023/10/10 12:07:24;;;;;;;;;35.00;32.25;;;;;32.58;39.80;100787.53;5099324;27;45887;-74
2023/10/10 12:09:55;;;;;;;;;19.33;16.67;;;;;32.57;39.30;100777.66;5099061;27;45515;-75
2023/10/10 12:12:23;;;;;;;;;19.33;17.67;;;;;32.61;39.22;100769.28;5099255;27;45539;-73
2023/10/10 12:14:50;;;;;;;;;17.33;15.67;;;;;32.64;39.60;100774.50;5098420;27;45326;-74
2023/10/10 12:17:20;;;;;;;;;19.00;17.00;;;;;32.61;38.33;100763.88;5098217;27;45448;-73
2023/10/10 12:19:49;;;;;;;;;16.00;15.00;;;;;32.64;38.31;100770.94;5098671;27;45481;-73
2023/10/10 12:22:17;;;;;;;;;16.67;15.33;;;;;32.70;38.42;100767.88;5097806;27;45508;-74
2023/10/10 12:24:43;;;;;;;;;12.67;12.33;;;;;32.69;37.46;100763.44;5098765;27;45777;-73
2023/10/10 12:27:09;;;;;;;;;14.33;14.33;;;;;32.48;37.64;100762.81;5097728;27;46165;-75
2023/10/10 12:29:41;;;;;;;;;15.00;15.00;;;;;32.40;38.36;100740.75;5098567;27;45467;-74
2023/10/10 12:32:18;;;;;;;;;15.00;15.00;;;;;32.38;37.58;100757.06;5097978;27;46995;-73
2023/10/10 12:34:45;;;;;;;;;15.00;13.33;;;;;32.41;38.02;100753.31;5099006;27;45577;-74
2023/10/10 12:37:15;;;;;;;;;16.00;15.33;;;;;32.40;37.52;100757.00;5097975;27;45625;-73
2023/10/10 12:39:42;;;;;;;;;16.00;14.67;;;;;32.30;36.64;100741.28;5098170;27;45164;-74
2023/10/10 12:42:07;;;;;;;;;18.33;16.67;;;;;32.30;37.42;100746.69;5096917;27;45446;-73
2023/10/10 12:44:34;;;;;;;;;19.33;18.00;;;;;32.34;37.86;100738.44;5098601;27;45515;-75
2023/10/10 12:47:06;;;;;;;;;37.00;32.25;;;;;32.40;37.59;100729.94;5096183;27;47118;-73
2023/10/10 12:49:36;;;;;;;;;29.75;29.25;;;;;32.24;37.09;100695.69;5095870;27;45987;-73
2023/10/10 12:52:11;;;;;;;;;28.25;27.50;;;;;32.39;38.39;100730.91;5097635;27;45538;-74
2023/10/10 12:54:36;;;;;;;;;37.50;32.00;;;;;32.34;37.54;100728.47;5097128;27;45461;-73
2023/10/10 12:57:06;;;;;;;;;32.25;30.00;;;;;32.09;36.30;100710.09;5096933;27;45380;-74
2023/10/10 12:59:34;;;;;;;;;24.67;21.33;;;;;32.14;35.59;100726.06;5097816;27;45480;-74
2023/10/10 13:02:03;;;;;;;;;19.33;18.33;;;;;32.09;37.04;100715.50;5097808;27;45760;-74
2023/10/10 13:04:31;;;;;;;;;32.75;31.75;;;;;32.08;37.50;100711.94;5098155;27;45474;-74
2023/10/10 13:07:02;;;;;;;;;25.00;22.67;;;;;31.97;36.60;100719.72;5097902;27;45494;-76
2023/10/10 13:09:29;;;;;;;;;17.00;17.00;;;;;31.82;36.06;100716.09;5065720;27;45413;-73
2023/10/10 13:11:56;;;;;;;;;18.00;16.33;;;;;31.82;36.33;100718.78;5098079;27;45398;-74
2023/10/10 13:14:24;;;;;;;;;18.00;16.67;;;;;31.83;36.04;100709.72;5098320;27;45594;-73
2023/10/10 13:19:20;;;;;;;;;25.00;24.00;;;;;31.98;33.16;100707.97;5097495;27;45742;-73
2023/10/10 13:21:47;;;;;;;;;16.00;15.33;;;;;31.86;34.32;100687.94;5098038;27;45415;-74
2023/10/10 13:24:18;;;;;;;;;22.33;20.67;;;;;31.97;34.31;100691.84;5097709;27;45624;-73
2023/10/10 13:26:51;;;;;;;;;44.25;37.75;;;;;31.95;34.79;100696.47;5084690;27;46131;-73
2023/10/10 13:29:17;;;;;;;;;50.50;41.00;;;;;31.87;34.75;100695.09;5086522;27;45412;-73
2023/10/10 13:31:46;;;;;;;;;49.50;41.75;;;;;31.84;34.15;100676.34;5098479;27;45649;-73
2023/10/10 13:34:13;;;;;;;;;45.25;38.00;;;;;32.03;34.04;100688.81;5097387;27;45488;-74
2023/10/10 13:36:39;;;;;;;;;34.25;30.00;;;;;32.07;33.39;100685.88;5097135;27;45986;-73
2023/10/10 13:39:09;;;;;;;;;31.50;30.00;;;;;31.92;34.19;100690.28;5097894;27;45838;-73
2023/10/10 13:41:35;;;;;;;;;31.00;29.25;;;;;31.97;33.07;100687.31;5096718;27;45510;-73
2023/10/10 13:44:03;;;;;;;;;24.67;23.33;;;;;32.09;32.30;100685.78;5098041;27;45348;-75
2023/10/10 13:46:34;;;;;;;;;27.67;27.00;;;;;32.06;31.96;100667.91;5086438;27;46468;-74
2023/10/10 13:49:03;;;;;;;;;25.00;22.67;;;;;32.20;32.15;100680.63;5092437;27;45408;-74
2023/10/10 13:51:29;;;;;;;;;17.00;15.33;;;;;32.23;31.67;100690.38;5097166;27;45649;-73
2023/10/10 13:53:56;;;;;;;;;16.00;13.67;;;;;32.12;32.93;100688.31;5095922;27;45425;-74
2023/10/10 13:56:22;;;;;;;;;13.00;12.00;;;;;32.14;32.31;100688.22;5097918;27;45511;-73
2023/10/10 13:58:48;;;;;;;;;13.67;13.67;;;;;32.24;33.16;100693.00;5097214;27;45309;-73
2023/10/10 14:01:18;;;;;;;;;17.33;15.67;;;;;32.32;33.13;100688.97;5098452;27;45351;-73
2023/10/10 14:03:48;;;;;;;;;11.00;11.00;;;;;32.19;33.31;100686.09;5098818;27;45491;-74
2023/10/10 14:06:16;;;;;;;;;10.33;10.00;;;;;32.27;32.40;100689.22;5097814;27;46219;-73
2023/10/10 14:08:47;;;;;;;;;26.00;25.00;;;;;32.39;32.03;100684.94;5098072;27;45501;-73
2023/10/10 14:11:23;;;;;;;;;13.33;12.33;;;;;32.45;32.14;100684.56;5097758;27;45330;-74
2023/10/10 14:13:53;;;;;;;;;11.67;11.67;;;;;32.43;32.43;100681.97;5098692;27;45702;-73
2023/10/10 14:16:20;;;;;;;;;8.00;7.33;;;;;32.22;32.03;100640.00;5098094;27;45635;-74
2023/10/10 14:18:49;;;;;;;;;11.33;10.00;;;;;32.35;32.83;100683.38;5096795;27;45494;-80
2023/10/10 14:21:23;;;;;;;;;10.33;10.00;;;;;32.41;32.67;100686.59;5097121;27;45974;-75
2023/10/10 14:23:49;;;;;;;;;10.67;9.00;;;;;32.45;32.53;100680.06;5096345;27;45364;-73
2023/10/10 14:26:18;;;;;;;;;10.67;8.67;;;;;32.40;33.11;100676.75;5096117;27;45485;-74
2023/10/10 14:28:52;;;;;;;;;12.33;10.00;;;;;32.18;33.36;100674.44;5095903;27;45502;-73
2023/10/10 14:31:23;;;;;;;;;11.00;10.33;;;;;32.12;32.02;100680.19;5096322;27;45486;-73